createdAt,value
2019-01-30T00:01:21.983Z,99.30
2019-01-30T00:03:49.866Z,99.20
2019-01-30T00:06:17.527Z,99.20
2019-01-30T00:08:45.630Z,99.30
2019-01-30T00:11:13.102Z,99.20
2019-01-30T00:13:40.637Z,99.30
2019-01-30T00:16:08.258Z,99.30
2019-01-30T00:18:36.415Z,99.40
2019-01-30T00:21:04.034Z,99.50
2019-01-30T00:23:34.879Z,99.40
2019-01-30T00:26:02.783Z,99.10
2019-01-30T00:28:30.327Z,99.30
2019-01-30T00:30:58.149Z,99.30
2019-01-30T00:33:25.798Z,99.10
2019-01-30T00:35:59.301Z,99.10
2019-01-30T00:38:27.399Z,98.90
2019-01-30T00:41:01.263Z,99.10
2019-01-30T00:43:29.196Z,99.00
2019-01-30T00:45:57.272Z,99.00
2019-01-30T00:48:24.763Z,98.90
2019-01-30T00:50:53.686Z,99.20
2019-01-30T00:53:21.499Z,98.80
2019-01-30T00:55:49.193Z,98.80
2019-01-30T00:58:17.102Z,98.60
2019-01-30T01:00:44.927Z,98.40
2019-01-30T01:03:13.407Z,98.50
2019-01-30T01:05:41.422Z,98.40
2019-01-30T01:08:09.219Z,98.40
2019-01-30T01:10:37.420Z,98.60
2019-01-30T01:13:05.288Z,98.40
2019-01-30T01:15:34.465Z,98.40
2019-01-30T01:18:02.775Z,98.50
2019-01-30T01:20:30.475Z,98.40
2019-01-30T01:22:58.197Z,98.50
2019-01-30T01:25:25.843Z,98.30
2019-01-30T01:27:53.331Z,98.30
2019-01-30T01:30:25.721Z,98.40
2019-01-30T01:32:55.664Z,98.30
2019-01-30T01:35:23.981Z,98.30
2019-01-30T01:37:51.868Z,98.40
2019-01-30T01:40:21.427Z,98.10
2019-01-30T01:42:49.209Z,98.00
2019-01-30T01:45:18.957Z,97.90
2019-01-30T01:47:47.060Z,97.70
2019-01-30T01:50:16.959Z,97.80
2019-01-30T01:52:45.019Z,97.70
2019-01-30T01:55:12.777Z,97.70
2019-01-30T01:57:40.505Z,97.80
2019-01-30T02:00:11.239Z,97.50
2019-01-30T02:02:38.705Z,97.60
2019-01-30T02:05:08.669Z,97.40
2019-01-30T02:07:36.760Z,97.20
2019-01-30T02:10:06.016Z,97.20
2019-01-30T02:12:33.840Z,97.20
2019-01-30T02:15:01.715Z,97.30
2019-01-30T02:17:29.511Z,97.30
2019-01-30T02:19:58.733Z,97.20
2019-01-30T02:22:56.952Z,97.10
2019-01-30T02:25:24.898Z,97.10
2019-01-30T02:27:52.639Z,96.90
2019-01-30T02:30:22.304Z,97.10
2019-01-30T02:32:52.620Z,97.00
2019-01-30T02:35:20.139Z,97.00
2019-01-30T02:37:47.996Z,97.00
2019-01-30T02:40:16.961Z,97.00
2019-01-30T02:42:44.832Z,97.00
2019-01-30T02:45:14.439Z,97.00
2019-01-30T02:47:41.913Z,97.20
2019-01-30T02:50:11.891Z,97.00
2019-01-30T02:52:43.379Z,96.80
2019-01-30T02:55:12.475Z,96.90
2019-01-30T02:57:39.948Z,96.90
2019-01-30T03:00:19.134Z,97.00
2019-01-30T03:02:49.460Z,97.10
2019-01-30T03:05:17.263Z,97.10
2019-01-30T03:07:44.775Z,97.10
2019-01-30T03:10:16.597Z,97.10
2019-01-30T03:12:44.114Z,97.10
2019-01-30T03:15:12.038Z,97.00
2019-01-30T03:17:40.095Z,97.00
2019-01-30T03:22:48.327Z,97.20
2019-01-30T03:25:16.726Z,97.20
2019-01-30T03:27:44.275Z,97.00
2019-01-30T03:30:23.414Z,96.80
2019-01-30T03:32:50.925Z,96.90
2019-01-30T03:35:18.950Z,97.00
2019-01-30T03:37:46.746Z,96.60
2019-01-30T03:40:15.892Z,96.60
2019-01-30T03:42:43.382Z,96.70
2019-01-30T03:45:11.750Z,96.90
2019-01-30T03:47:39.284Z,96.80
2019-01-30T03:50:07.962Z,96.70
2019-01-30T03:52:35.734Z,96.70
2019-01-30T03:55:04.288Z,96.50
2019-01-30T03:57:36.060Z,96.50
2019-01-30T04:00:05.388Z,96.50
2019-01-30T04:02:32.957Z,96.40
2019-01-30T04:05:00.737Z,96.40
2019-01-30T04:07:28.368Z,96.40
2019-01-30T04:09:56.440Z,96.90
2019-01-30T04:12:23.902Z,96.50
2019-01-30T04:14:51.750Z,96.30
2019-01-30T04:17:19.462Z,96.30
2019-01-30T04:19:47.028Z,96.30
2019-01-30T04:22:14.752Z,96.40
2019-01-30T04:24:42.514Z,96.20
2019-01-30T04:27:16.984Z,96.10
2019-01-30T04:29:44.567Z,96.10
2019-01-30T04:32:14.810Z,95.90
2019-01-30T04:34:42.323Z,95.90
2019-01-30T04:37:10.131Z,96.10
2019-01-30T04:39:37.643Z,95.90
2019-01-30T04:42:05.146Z,95.90
2019-01-30T04:44:32.563Z,96.00
2019-01-30T04:47:00.047Z,96.10
2019-01-30T04:49:27.579Z,96.10
2019-01-30T04:51:55.412Z,95.90
2019-01-30T04:54:22.874Z,95.80
2019-01-30T04:56:50.376Z,95.80
2019-01-30T04:59:18.900Z,95.70
2019-01-30T05:01:49.838Z,95.80
2019-01-30T05:04:16.039Z,95.80
2019-01-30T05:06:43.545Z,95.80
2019-01-30T05:09:11.322Z,95.70
2019-01-30T05:11:40.088Z,95.40
2019-01-30T05:14:07.945Z,95.40
2019-01-30T05:16:54.818Z,95.60
2019-01-30T05:19:22.531Z,95.40
2019-01-30T05:21:51.344Z,95.30
2019-01-30T05:24:18.816Z,95.30
2019-01-30T05:26:46.535Z,95.20
2019-01-30T05:29:14.275Z,95.30
2019-01-30T05:31:42.089Z,95.30
2019-01-30T05:34:09.538Z,95.40
2019-01-30T05:36:36.972Z,95.50
2019-01-30T05:39:08.008Z,95.20
2019-01-30T05:41:36.035Z,95.20
2019-01-30T05:44:03.689Z,95.20
2019-01-30T05:46:31.818Z,95.10
2019-01-30T05:48:59.283Z,95.20
2019-01-30T05:51:26.725Z,95.20
2019-01-30T05:53:54.188Z,95.30
2019-01-30T05:56:22.497Z,95.30
2019-01-30T05:58:51.959Z,95.00
2019-01-30T06:01:19.426Z,94.90
2019-01-30T06:03:47.713Z,95.00
2019-01-30T06:06:15.770Z,95.10
2019-01-30T06:08:43.496Z,94.90
2019-01-30T06:11:12.183Z,94.90
2019-01-30T06:13:39.717Z,95.00
2019-01-30T06:16:07.169Z,95.10
2019-01-30T06:18:35.236Z,94.80
2019-01-30T06:21:03.091Z,94.90
2019-01-30T06:23:30.845Z,95.20
2019-01-30T06:25:58.375Z,94.80
2019-01-30T06:28:29.203Z,94.90
2019-01-30T06:30:55.452Z,94.80
2019-01-30T06:33:22.984Z,94.70
2019-01-30T06:35:52.529Z,94.70
2019-01-30T06:38:20.359Z,94.50
2019-01-30T06:40:49.316Z,94.70
2019-01-30T06:43:17.063Z,94.70
2019-01-30T06:45:45.190Z,94.80
2019-01-30T06:48:12.792Z,94.60
2019-01-30T06:50:40.490Z,94.60
2019-01-30T06:53:08.003Z,94.60
2019-01-30T06:55:35.506Z,94.40
2019-01-30T06:58:03.182Z,94.40
2019-01-30T07:00:30.983Z,94.30
2019-01-30T07:02:58.850Z,94.40
2019-01-30T07:05:26.290Z,94.30
2019-01-30T07:07:53.794Z,94.30
2019-01-30T07:10:23.450Z,94.10
2019-01-30T07:12:51.410Z,94.20
2019-01-30T07:15:18.848Z,94.20
2019-01-30T07:17:46.374Z,94.00
2019-01-30T07:20:14.060Z,93.60
2019-01-30T07:22:41.792Z,93.80
2019-01-30T07:25:10.362Z,93.80
2019-01-30T07:27:37.816Z,93.70
2019-01-30T07:30:10.066Z,93.50
2019-01-30T07:32:42.313Z,93.60
2019-01-30T07:35:07.059Z,93.60
2019-01-30T07:37:34.495Z,93.40
2019-01-30T07:40:01.990Z,93.60
2019-01-30T07:42:29.469Z,93.30
2019-01-30T07:44:56.951Z,93.30
2019-01-30T07:47:24.428Z,93.10
2019-01-30T07:49:52.428Z,93.00
2019-01-30T07:52:20.311Z,93.50
2019-01-30T07:54:47.851Z,93.30
2019-01-30T07:57:15.416Z,93.50
2019-01-30T07:59:43.168Z,93.80
2019-01-30T08:02:10.603Z,93.90
2019-01-30T08:04:38.104Z,94.40
2019-01-30T08:07:05.527Z,94.70
2019-01-30T08:09:33.053Z,94.80
2019-01-30T08:12:00.459Z,95.10
2019-01-30T08:14:28.168Z,95.20
2019-01-30T08:16:55.934Z,95.20
2019-01-30T08:19:23.353Z,95.70
2019-01-30T08:21:51.084Z,95.90
2019-01-30T08:24:18.968Z,95.50
2019-01-30T08:26:46.770Z,95.20
2019-01-30T08:29:15.169Z,95.40
2019-01-30T08:31:42.914Z,95.20
2019-01-30T08:34:10.717Z,95.20
2019-01-30T08:36:38.175Z,94.50
2019-01-30T08:39:07.528Z,94.80
2019-01-30T08:41:35.250Z,94.60
2019-01-30T08:44:03.110Z,94.40
2019-01-30T08:46:31.264Z,94.40
2019-01-30T08:48:58.773Z,94.10
2019-01-30T08:51:26.242Z,94.20
2019-01-30T08:53:54.338Z,94.00
2019-01-30T08:56:22.489Z,93.90
2019-01-30T08:58:50.186Z,93.70
2019-01-30T09:01:17.611Z,93.70
2019-01-30T09:03:45.055Z,93.60
2019-01-30T09:06:12.455Z,93.30
2019-01-30T09:08:39.900Z,93.10
2019-01-30T09:11:07.681Z,93.00
2019-01-30T09:13:36.135Z,92.90
2019-01-30T09:16:04.232Z,92.70
2019-01-30T09:18:32.070Z,92.30
2019-01-30T09:20:59.409Z,92.60
2019-01-30T09:23:26.956Z,92.50
2019-01-30T09:25:54.354Z,92.40
2019-01-30T09:28:22.783Z,92.60
2019-01-30T09:30:50.506Z,92.60
2019-01-30T09:33:25.677Z,92.70
2019-01-30T09:35:47.142Z,92.50
2019-01-30T09:38:14.731Z,92.50
2019-01-30T09:40:42.489Z,92.40
2019-01-30T09:43:10.234Z,92.70
2019-01-30T09:45:37.680Z,92.50
2019-01-30T09:48:06.094Z,92.70
2019-01-30T09:50:34.301Z,92.50
2019-01-30T09:53:02.225Z,92.20
2019-01-30T09:55:29.896Z,92.10
2019-01-30T09:57:57.655Z,92.20
2019-01-30T10:00:30.049Z,92.20
2019-01-30T10:03:16.944Z,92.20
2019-01-30T10:05:45.390Z,92.20
2019-01-30T10:08:13.227Z,91.90
2019-01-30T10:10:40.945Z,91.90
2019-01-30T10:13:08.622Z,91.60
2019-01-30T10:15:38.010Z,91.40
2019-01-30T10:18:05.944Z,91.70
2019-01-30T10:20:33.951Z,91.70
2019-01-30T10:23:02.053Z,91.60
2019-01-30T10:25:29.868Z,91.60
2019-01-30T10:27:57.696Z,91.30
2019-01-30T10:30:30.924Z,91.00
2019-01-30T10:33:04.813Z,91.00
2019-01-30T10:35:32.964Z,91.10
2019-01-30T10:38:00.453Z,90.70
2019-01-30T10:40:27.885Z,90.60
2019-01-30T10:42:57.396Z,90.50
2019-01-30T10:45:25.861Z,90.70
2019-01-30T10:47:53.607Z,90.00
2019-01-30T10:50:23.465Z,89.50
2019-01-30T10:52:51.158Z,88.50
2019-01-30T10:55:20.561Z,86.40
2019-01-30T10:57:49.667Z,83.60
2019-01-30T11:00:22.691Z,81.30
2019-01-30T11:02:50.156Z,80.70
2019-01-30T11:05:18.079Z,80.00
2019-01-30T11:07:45.738Z,79.70
2019-01-30T11:10:16.202Z,80.50
2019-01-30T11:12:43.658Z,81.10
2019-01-30T11:15:13.554Z,82.40
2019-01-30T11:17:41.042Z,82.20
2019-01-30T11:20:09.531Z,82.10
2019-01-30T11:22:36.982Z,81.50
2019-01-30T11:25:07.929Z,80.70
2019-01-30T11:27:36.485Z,80.30
2019-01-30T11:30:05.390Z,79.80
2019-01-30T11:32:33.130Z,79.30
2019-01-30T11:35:00.954Z,77.80
2019-01-30T11:37:28.428Z,78.90
2019-01-30T11:39:56.502Z,79.10
2019-01-30T11:42:23.898Z,78.90
2019-01-30T11:44:51.958Z,79.40
2019-01-30T11:47:19.689Z,79.20
2019-01-30T11:49:47.105Z,80.80
2019-01-30T11:52:14.622Z,80.20
2019-01-30T11:54:42.151Z,80.90
2019-01-30T11:57:09.603Z,81.30
2019-01-30T11:59:37.395Z,80.80
2019-01-30T12:02:05.100Z,81.60
2019-01-30T12:04:32.540Z,82.50
2019-01-30T12:07:00.008Z,82.90
2019-01-30T12:09:27.680Z,81.30
2019-01-30T12:11:55.524Z,81.90
2019-01-30T12:14:23.650Z,80.10
2019-01-30T12:16:51.103Z,80.50
2019-01-30T12:19:18.544Z,80.40
2019-01-30T12:21:46.698Z,80.20
2019-01-30T12:24:14.555Z,80.40
2019-01-30T12:26:42.021Z,80.20
2019-01-30T12:29:10.096Z,80.00
2019-01-30T12:31:37.555Z,80.00
2019-01-30T12:34:05.069Z,79.10
2019-01-30T12:36:33.124Z,79.70
2019-01-30T12:39:00.615Z,79.80
2019-01-30T12:41:28.346Z,79.60
2019-01-30T12:43:55.802Z,78.70
2019-01-30T12:46:23.595Z,80.00
2019-01-30T12:48:51.094Z,80.60
2019-01-30T12:51:19.030Z,80.50
2019-01-30T12:53:46.837Z,80.20
2019-01-30T12:56:14.262Z,79.70
2019-01-30T12:58:41.654Z,80.80
2019-01-30T13:01:09.132Z,80.90
2019-01-30T13:03:37.049Z,80.40
2019-01-30T13:06:04.521Z,80.40
2019-01-30T13:08:32.052Z,80.60
2019-01-30T13:10:59.451Z,80.70
2019-01-30T13:13:27.310Z,80.50
2019-01-30T13:15:55.079Z,80.20
2019-01-30T13:18:22.550Z,81.00
2019-01-30T13:20:50.063Z,81.40
2019-01-30T13:23:17.779Z,81.40
2019-01-30T13:25:45.642Z,82.00
2019-01-30T13:28:13.366Z,82.80
2019-01-30T13:30:43.476Z,82.90
2019-01-30T13:33:10.788Z,82.00
2019-01-30T13:35:38.516Z,82.70
2019-01-30T13:38:06.546Z,82.80
2019-01-30T13:40:36.715Z,82.50
2019-01-30T13:43:05.634Z,82.00
2019-01-30T13:45:33.044Z,81.50
2019-01-30T13:48:00.502Z,81.80
2019-01-30T13:50:28.508Z,82.00
2019-01-30T13:52:56.778Z,82.30
2019-01-30T13:55:24.810Z,82.20
2019-01-30T13:57:52.547Z,82.00
2019-01-30T14:00:22.969Z,82.00
2019-01-30T14:02:50.764Z,82.20
2019-01-30T14:05:18.563Z,82.10
2019-01-30T14:07:47.615Z,81.60
2019-01-30T14:10:15.652Z,81.70
2019-01-30T14:12:43.134Z,80.60
2019-01-30T14:15:12.994Z,80.40
2019-01-30T14:17:40.939Z,78.70
2019-01-30T14:20:10.475Z,78.10
2019-01-30T14:22:38.183Z,77.70
2019-01-30T14:25:06.383Z,76.50
2019-01-30T14:27:33.801Z,76.30
2019-01-30T14:30:01.481Z,76.40
2019-01-30T14:32:29.085Z,77.70
2019-01-30T14:34:57.247Z,76.90
2019-01-30T14:37:24.652Z,76.70
2019-01-30T14:39:53.618Z,76.40
2019-01-30T14:42:21.085Z,77.00
2019-01-30T14:44:48.800Z,76.90
2019-01-30T14:47:16.291Z,77.60
2019-01-30T14:49:44.055Z,77.30
2019-01-30T14:52:11.573Z,77.50
2019-01-30T14:54:39.072Z,77.50
2019-01-30T14:57:06.512Z,77.90
2019-01-30T14:59:34.340Z,78.00
2019-01-30T15:02:02.113Z,78.40
2019-01-30T15:04:29.792Z,79.30
2019-01-30T15:06:57.272Z,79.60
2019-01-30T15:09:25.040Z,80.10
2019-01-30T15:11:52.881Z,80.10
2019-01-30T15:14:20.597Z,80.30
2019-01-30T15:16:49.136Z,80.60
2019-01-30T15:19:16.920Z,81.30
2019-01-30T15:21:44.379Z,81.60
2019-01-30T15:24:11.978Z,81.30
2019-01-30T15:26:39.407Z,82.60
2019-01-30T15:29:07.216Z,82.20
2019-01-30T15:31:34.664Z,82.90
2019-01-30T15:34:02.454Z,83.30
2019-01-30T15:36:29.918Z,83.60
2019-01-30T15:38:57.762Z,83.20
2019-01-30T15:41:25.598Z,84.20
2019-01-30T15:43:53.045Z,83.70
2019-01-30T15:46:20.602Z,84.10
2019-01-30T15:48:48.346Z,84.30
2019-01-30T15:51:16.103Z,84.30
2019-01-30T15:53:43.878Z,84.10
2019-01-30T15:56:11.291Z,84.40
2019-01-30T15:58:39.156Z,85.20
2019-01-30T16:01:20.175Z,85.30
2019-01-30T16:03:47.959Z,85.80
2019-01-30T16:06:15.404Z,86.10
2019-01-30T16:08:43.192Z,86.30
2019-01-30T16:11:10.795Z,87.00
2019-01-30T16:13:46.712Z,86.60
2019-01-30T16:16:14.153Z,86.80
2019-01-30T16:18:41.655Z,87.10
2019-01-30T16:21:09.811Z,87.60
2019-01-30T16:23:37.446Z,87.30
2019-01-30T16:26:05.006Z,87.70
2019-01-30T16:28:33.232Z,87.40
2019-01-30T16:31:00.846Z,88.00
2019-01-30T16:33:28.327Z,88.80
2019-01-30T16:35:56.529Z,89.30
2019-01-30T16:38:24.007Z,88.70
2019-01-30T16:40:51.887Z,88.90
2019-01-30T16:43:19.627Z,89.10
2019-01-30T16:45:47.105Z,90.00
2019-01-30T16:48:14.990Z,90.00
2019-01-30T16:50:42.808Z,90.00
2019-01-30T16:53:10.717Z,90.00
2019-01-30T16:55:38.607Z,90.20
2019-01-30T16:58:08.432Z,90.20
2019-01-30T17:00:36.401Z,90.30
2019-01-30T17:03:04.364Z,90.30
2019-01-30T17:05:32.254Z,90.50
2019-01-30T17:08:00.152Z,90.90
2019-01-30T17:10:28.075Z,90.80
2019-01-30T17:12:55.642Z,91.00
2019-01-30T17:15:25.574Z,91.10
2019-01-30T17:17:53.168Z,91.10
2019-01-30T17:20:22.743Z,91.30
2019-01-30T17:22:56.395Z,91.40
2019-01-30T17:25:24.270Z,91.40
2019-01-30T17:27:51.862Z,91.40
2019-01-30T17:30:25.651Z,91.70
2019-01-30T17:32:53.696Z,91.80
2019-01-30T17:35:22.857Z,92.00
2019-01-30T17:37:52.981Z,92.00
2019-01-30T17:40:21.773Z,92.10
2019-01-30T17:42:49.710Z,92.40
2019-01-30T17:45:18.135Z,92.40
2019-01-30T17:47:46.054Z,92.00
2019-01-30T17:50:16.580Z,91.90
2019-01-30T17:52:44.261Z,92.00
2019-01-30T17:55:12.263Z,92.20
2019-01-30T17:57:40.386Z,92.20
2019-01-30T18:00:26.138Z,92.30
2019-01-30T18:02:54.252Z,92.40
2019-01-30T18:05:21.880Z,92.30
2019-01-30T18:07:49.741Z,92.20
2019-01-30T18:10:18.148Z,91.70
2019-01-30T18:12:46.246Z,91.60
2019-01-30T18:15:14.817Z,91.60
2019-01-30T18:17:42.774Z,91.60
2019-01-30T18:20:12.282Z,91.70
2019-01-30T18:22:40.398Z,92.00
2019-01-30T18:25:09.479Z,92.20
2019-01-30T18:27:37.947Z,93.00
2019-01-30T18:30:08.135Z,92.90
2019-01-30T18:32:36.558Z,93.50
2019-01-30T18:35:06.808Z,93.60
2019-01-30T18:37:36.750Z,94.10
2019-01-30T18:40:08.247Z,93.90
2019-01-30T18:42:36.286Z,94.20
2019-01-30T18:45:09.072Z,94.80
2019-01-30T18:47:37.832Z,95.10
2019-01-30T18:50:08.815Z,95.60
2019-01-30T18:52:41.061Z,95.90
2019-01-30T18:55:09.039Z,96.00
2019-01-30T18:57:37.331Z,96.00
2019-01-30T19:00:10.660Z,96.20
2019-01-30T19:02:40.215Z,96.20
2019-01-30T19:05:09.390Z,96.40
2019-01-30T19:07:37.569Z,96.30
2019-01-30T19:10:08.517Z,96.50
2019-01-30T19:12:36.605Z,96.70
2019-01-30T19:15:06.364Z,96.80
2019-01-30T19:17:37.424Z,96.90
2019-01-30T19:20:08.506Z,96.90
2019-01-30T19:22:37.092Z,96.70
2019-01-30T19:25:08.433Z,97.00
2019-01-30T19:27:37.165Z,96.80
2019-01-30T19:30:09.024Z,96.90
2019-01-30T19:32:38.128Z,96.80
2019-01-30T19:35:07.836Z,96.70
2019-01-30T19:37:37.226Z,96.30
2019-01-30T19:40:07.251Z,96.20
2019-01-30T19:42:36.586Z,96.50
2019-01-30T19:45:08.027Z,96.00
2019-01-30T19:47:36.652Z,96.00
2019-01-30T19:50:08.150Z,95.90
2019-01-30T19:52:37.384Z,96.00
2019-01-30T19:55:07.277Z,95.80
2019-01-30T19:57:37.449Z,95.80
2019-01-30T20:00:10.282Z,95.70
2019-01-30T20:02:41.329Z,95.60
2019-01-30T20:05:13.666Z,95.50
2019-01-30T20:07:45.038Z,95.40
2019-01-30T20:10:18.158Z,95.10
2019-01-30T20:12:47.131Z,95.10
2019-01-30T20:15:19.020Z,95.00
2019-01-30T20:17:52.158Z,94.80
2019-01-30T20:20:22.555Z,94.50
2019-01-30T20:22:53.074Z,94.20
2019-01-30T20:25:24.926Z,93.90
2019-01-30T20:28:00.292Z,94.00
2019-01-30T20:30:30.156Z,94.20
2019-01-30T20:32:59.241Z,94.20
2019-01-30T20:35:28.136Z,93.80
2019-01-30T20:38:00.387Z,93.80
2019-01-30T20:40:29.458Z,94.00
2019-01-30T20:43:00.469Z,93.80
2019-01-30T20:45:33.791Z,93.90
2019-01-30T20:48:00.835Z,93.90
2019-01-30T20:50:29.683Z,93.80
2019-01-30T20:52:58.489Z,93.90
2019-01-30T20:55:26.964Z,93.90
2019-01-30T20:58:00.838Z,94.00
2019-01-30T21:00:35.317Z,93.70
2019-01-30T21:03:08.498Z,93.90
2019-01-30T21:05:36.822Z,93.80
2019-01-30T21:08:06.891Z,93.70
2019-01-30T21:10:37.580Z,93.70
2019-01-30T21:13:09.286Z,93.20
2019-01-30T21:15:37.958Z,93.30
2019-01-30T21:18:18.001Z,93.30
2019-01-30T21:20:47.489Z,93.00
2019-01-30T21:23:15.867Z,93.30
2019-01-30T21:26:03.739Z,93.20
2019-01-30T21:28:36.018Z,93.60
2019-01-30T21:31:04.034Z,93.40
2019-01-30T21:33:32.542Z,93.60
2019-01-30T21:36:01.390Z,93.90
2019-01-30T21:38:36.577Z,94.00
2019-01-30T21:43:47.351Z,94.10
2019-01-30T21:46:18.562Z,94.60
2019-01-30T21:48:48.537Z,94.70
2019-01-30T21:51:16.164Z,94.90
2019-01-30T21:53:44.131Z,95.20
2019-01-30T21:56:19.121Z,95.30
2019-01-30T21:58:48.049Z,95.50
2019-01-30T22:01:15.715Z,95.50
2019-01-30T22:03:43.405Z,95.80
2019-01-30T22:06:11.193Z,95.90
2019-01-30T22:08:39.363Z,95.90
2019-01-30T22:11:07.675Z,95.80
2019-01-30T22:13:35.401Z,96.00
2019-01-30T22:16:03.612Z,96.20
2019-01-30T22:18:31.134Z,96.30
2019-01-30T22:20:58.789Z,96.50
2019-01-30T22:23:28.387Z,96.70
2019-01-30T22:26:01.592Z,96.70
2019-01-30T22:28:31.071Z,97.00
2019-01-30T22:30:58.656Z,97.10
2019-01-30T22:33:28.504Z,97.40
2019-01-30T22:35:56.851Z,97.50
2019-01-30T22:38:25.689Z,97.70
2019-01-30T22:40:53.499Z,97.90
2019-01-30T22:43:20.964Z,97.90
2019-01-30T22:45:51.116Z,98.00
2019-01-30T22:48:18.885Z,97.90
2019-01-30T22:50:47.153Z,97.90
2019-01-30T22:53:21.519Z,97.90
2019-01-30T22:55:54.990Z,97.80
2019-01-30T22:58:23.760Z,97.30
2019-01-30T23:01:27.134Z,97.20
2019-01-30T23:04:35.792Z,97.40
2019-01-30T23:07:28.268Z,97.30
2019-01-30T23:10:28.113Z,97.60
2019-01-30T23:13:09.306Z,97.80
2019-01-30T23:15:52.238Z,98.00
2019-01-30T23:18:49.039Z,97.90
2019-01-30T23:21:20.882Z,98.00
2019-01-30T23:24:30.333Z,97.90
2019-01-30T23:27:29.109Z,98.20
2019-01-30T23:30:20.402Z,97.80
2019-01-30T23:33:17.825Z,97.60
2019-01-30T23:36:10.011Z,97.70
2019-01-30T23:39:10.774Z,97.60
2019-01-30T23:42:08.567Z,97.80
2019-01-30T23:44:46.633Z,97.80
2019-01-30T23:47:37.449Z,97.90
2019-01-30T23:51:02.039Z,98.00
2019-01-30T23:54:19.049Z,97.90
2019-01-30T23:57:13.581Z,97.90
